sensor_id;sensor_type;location;lat;lon;timestamp;P1;durP1;ratioP1;P2;durP2;ratioP2
16478;SDS011;8350;52.316;10.530;2023-11-18T00:02:26;1.00;;;0.90;;
16478;SDS011;8350;52.316;10.530;2023-11-18T00:04:55;1.13;;;1.00;;
16478;SDS011;8350;52.316;10.530;2023-11-18T00:07:21;0.93;;;0.93;;
16478;SDS011;8350;52.316;10.530;2023-11-18T00:09:49;0.85;;;0.70;;
16478;SDS011;8350;52.316;10.530;2023-11-18T00:12:16;0.80;;;0.63;;
16478;SDS011;8350;52.316;10.530;2023-11-18T00:14:42;0.93;;;0.93;;
16478;SDS011;8350;52.316;10.530;2023-11-18T00:17:10;0.52;;;0.52;;
16478;SDS011;8350;52.316;10.530;2023-11-18T00:19:37;0.45;;;0.45;;
16478;SDS011;8350;52.316;10.530;2023-11-18T00:22:06;1.08;;;0.85;;
16478;SDS011;8350;52.316;10.530;2023-11-18T00:24:36;0.90;;;0.77;;
16478;SDS011;8350;52.316;10.530;2023-11-18T00:27:04;1.23;;;0.60;;
16478;SDS011;8350;52.316;10.530;2023-11-18T00:29:31;0.77;;;0.77;;
16478;SDS011;8350;52.316;10.530;2023-11-18T00:31:59;0.52;;;0.50;;
16478;SDS011;8350;52.316;10.530;2023-11-18T00:34:26;0.50;;;0.50;;
16478;SDS011;8350;52.316;10.530;2023-11-18T00:36:54;0.55;;;0.55;;
16478;SDS011;8350;52.316;10.530;2023-11-18T00:39:23;0.82;;;0.73;;
16478;SDS011;8350;52.316;10.530;2023-11-18T00:41:52;0.80;;;0.80;;
16478;SDS011;8350;52.316;10.530;2023-11-18T00:44:21;0.90;;;0.90;;
16478;SDS011;8350;52.316;10.530;2023-11-18T00:46:48;0.50;;;0.50;;
16478;SDS011;8350;52.316;10.530;2023-11-18T00:49:15;0.50;;;0.50;;
16478;SDS011;8350;52.316;10.530;2023-11-18T00:51:42;1.00;;;1.00;;
16478;SDS011;8350;52.316;10.530;2023-11-18T00:54:09;0.88;;;0.88;;
16478;SDS011;8350;52.316;10.530;2023-11-18T00:56:39;0.65;;;0.65;;
16478;SDS011;8350;52.316;10.530;2023-11-18T00:59:06;0.45;;;0.45;;
16478;SDS011;8350;52.316;10.530;2023-11-18T01:01:32;1.30;;;0.50;;
16478;SDS011;8350;52.316;10.530;2023-11-18T01:03:59;2.15;;;0.43;;
16478;SDS011;8350;52.316;10.530;2023-11-18T01:06:28;0.90;;;0.90;;
16478;SDS011;8350;52.316;10.530;2023-11-18T01:08:56;0.70;;;0.70;;
16478;SDS011;8350;52.316;10.530;2023-11-18T01:11:23;0.70;;;0.65;;
16478;SDS011;8350;52.316;10.530;2023-11-18T01:13:53;1.13;;;1.13;;
16478;SDS011;8350;52.316;10.530;2023-11-18T01:16:22;0.50;;;0.50;;
16478;SDS011;8350;52.316;10.530;2023-11-18T01:18:49;0.68;;;0.68;;
16478;SDS011;8350;52.316;10.530;2023-11-18T01:21:16;0.55;;;0.55;;
16478;SDS011;8350;52.316;10.530;2023-11-18T01:23:43;0.57;;;0.57;;
16478;SDS011;8350;52.316;10.530;2023-11-18T01:26:11;0.40;;;0.40;;
16478;SDS011;8350;52.316;10.530;2023-11-18T01:28:38;0.40;;;0.40;;
16478;SDS011;8350;52.316;10.530;2023-11-18T01:31:09;0.32;;;0.32;;
16478;SDS011;8350;52.316;10.530;2023-11-18T01:33:36;0.98;;;0.82;;
16478;SDS011;8350;52.316;10.530;2023-11-18T01:36:05;0.90;;;0.90;;
16478;SDS011;8350;52.316;10.530;2023-11-18T01:38:34;3.33;;;0.90;;
16478;SDS011;8350;52.316;10.530;2023-11-18T01:41:02;0.65;;;0.65;;
16478;SDS011;8350;52.316;10.530;2023-11-18T01:43:30;0.68;;;0.68;;
16478;SDS011;8350;52.316;10.530;2023-11-18T01:45:58;0.60;;;0.60;;
16478;SDS011;8350;52.316;10.530;2023-11-18T01:48:31;0.52;;;0.50;;
16478;SDS011;8350;52.316;10.530;2023-11-18T01:51:01;0.52;;;0.52;;
16478;SDS011;8350;52.316;10.530;2023-11-18T01:53:31;0.43;;;0.40;;
16478;SDS011;8350;52.316;10.530;2023-11-18T01:56:02;0.88;;;0.73;;
16478;SDS011;8350;52.316;10.530;2023-11-18T01:58:30;0.50;;;0.50;;
16478;SDS011;8350;52.316;10.530;2023-11-18T02:01:01;1.45;;;1.45;;
16478;SDS011;8350;52.316;10.530;2023-11-18T02:03:28;0.80;;;0.80;;
16478;SDS011;8350;52.316;10.530;2023-11-18T02:05:57;0.90;;;0.40;;
16478;SDS011;8350;52.316;10.530;2023-11-18T02:08:24;1.55;;;0.93;;
16478;SDS011;8350;52.316;10.530;2023-11-18T02:10:54;1.23;;;0.98;;
16478;SDS011;8350;52.316;10.530;2023-11-18T02:13:27;2.53;;;0.85;;
16478;SDS011;8350;52.316;10.530;2023-11-18T02:15:59;0.57;;;0.57;;
16478;SDS011;8350;52.316;10.530;2023-11-18T02:18:29;1.20;;;0.75;;
16478;SDS011;8350;52.316;10.530;2023-11-18T02:20:58;0.28;;;0.28;;
16478;SDS011;8350;52.316;10.530;2023-11-18T02:23:26;0.68;;;0.60;;
16478;SDS011;8350;52.316;10.530;2023-11-18T02:25:55;0.85;;;0.73;;
16478;SDS011;8350;52.316;10.530;2023-11-18T02:28:22;1.40;;;0.90;;
16478;SDS011;8350;52.316;10.530;2023-11-18T02:30:49;2.00;;;1.30;;
16478;SDS011;8350;52.316;10.530;2023-11-18T02:33:22;1.52;;;1.42;;
16478;SDS011;8350;52.316;10.530;2023-11-18T02:35:56;2.50;;;0.93;;
16478;SDS011;8350;52.316;10.530;2023-11-18T02:38:30;0.68;;;0.68;;
16478;SDS011;8350;52.316;10.530;2023-11-18T02:41:03;0.75;;;0.52;;
16478;SDS011;8350;52.316;10.530;2023-11-18T02:43:34;1.30;;;1.20;;
16478;SDS011;8350;52.316;10.530;2023-11-18T02:46:03;0.60;;;0.60;;
16478;SDS011;8350;52.316;10.530;2023-11-18T02:48:32;1.52;;;1.42;;
16478;SDS011;8350;52.316;10.530;2023-11-18T02:50:59;1.20;;;1.13;;
16478;SDS011;8350;52.316;10.530;2023-11-18T02:53:29;1.08;;;1.05;;
16478;SDS011;8350;52.316;10.530;2023-11-18T02:55:55;0.98;;;0.90;;
16478;SDS011;8350;52.316;10.530;2023-11-18T02:58:28;0.85;;;0.70;;
16478;SDS011;8350;52.316;10.530;2023-11-18T03:00:56;0.63;;;0.63;;
16478;SDS011;8350;52.316;10.530;2023-11-18T03:03:25;1.25;;;1.00;;
16478;SDS011;8350;52.316;10.530;2023-11-18T03:05:52;0.77;;;0.77;;
16478;SDS011;8350;52.316;10.530;2023-11-18T03:08:20;1.25;;;0.82;;
16478;SDS011;8350;52.316;10.530;2023-11-18T03:10:47;1.45;;;1.35;;
16478;SDS011;8350;52.316;10.530;2023-11-18T03:13:17;1.38;;;1.27;;
16478;SDS011;8350;52.316;10.530;2023-11-18T03:15:46;0.70;;;0.70;;
16478;SDS011;8350;52.316;10.530;2023-11-18T03:18:13;1.33;;;1.23;;
16478;SDS011;8350;52.316;10.530;2023-11-18T03:20:41;1.30;;;1.13;;
16478;SDS011;8350;52.316;10.530;2023-11-18T03:23:08;3.08;;;1.35;;
16478;SDS011;8350;52.316;10.530;2023-11-18T03:25:35;1.52;;;1.30;;
16478;SDS011;8350;52.316;10.530;2023-11-18T03:28:03;0.95;;;0.93;;
16478;SDS011;8350;52.316;10.530;2023-11-18T03:30:31;0.60;;;0.60;;
16478;SDS011;8350;52.316;10.530;2023-11-18T03:33:00;1.40;;;1.08;;
16478;SDS011;8350;52.316;10.530;2023-11-18T03:35:31;1.15;;;1.10;;
16478;SDS011;8350;52.316;10.530;2023-11-18T03:37:58;1.65;;;1.52;;
16478;SDS011;8350;52.316;10.530;2023-11-18T03:40:25;1.00;;;0.90;;
16478;SDS011;8350;52.316;10.530;2023-11-18T03:42:54;1.33;;;1.20;;
16478;SDS011;8350;52.316;10.530;2023-11-18T03:45:22;2.70;;;1.30;;
16478;SDS011;8350;52.316;10.530;2023-11-18T03:47:49;1.48;;;1.38;;
16478;SDS011;8350;52.316;10.530;2023-11-18T03:50:20;2.20;;;1.13;;
16478;SDS011;8350;52.316;10.530;2023-11-18T03:52:50;2.17;;;1.55;;
16478;SDS011;8350;52.316;10.530;2023-11-18T03:55:17;1.65;;;0.68;;
16478;SDS011;8350;52.316;10.530;2023-11-18T03:57:44;1.70;;;1.05;;
16478;SDS011;8350;52.316;10.530;2023-11-18T04:00:12;1.35;;;1.00;;
16478;SDS011;8350;52.316;10.530;2023-11-18T04:02:42;2.63;;;1.38;;
16478;SDS011;8350;52.316;10.530;2023-11-18T04:05:20;0.70;;;0.70;;
16478;SDS011;8350;52.316;10.530;2023-11-18T04:07:47;1.00;;;0.95;;
16478;SDS011;8350;52.316;10.530;2023-11-18T04:10:14;0.63;;;0.63;;
16478;SDS011;8350;52.316;10.530;2023-11-18T04:12:43;1.33;;;1.23;;
16478;SDS011;8350;52.316;10.530;2023-11-18T04:15:12;1.20;;;1.10;;
16478;SDS011;8350;52.316;10.530;2023-11-18T04:17:39;1.23;;;1.13;;
16478;SDS011;8350;52.316;10.530;2023-11-18T04:20:07;1.50;;;1.42;;
16478;SDS011;8350;52.316;10.530;2023-11-18T04:22:38;1.42;;;1.33;;
16478;SDS011;8350;52.316;10.530;2023-11-18T04:25:07;1.42;;;1.05;;
16478;SDS011;8350;52.316;10.530;2023-11-18T04:27:35;1.38;;;1.38;;
16478;SDS011;8350;52.316;10.530;2023-11-18T04:30:02;1.50;;;1.40;;
16478;SDS011;8350;52.316;10.530;2023-11-18T04:32:29;0.82;;;0.80;;
16478;SDS011;8350;52.316;10.530;2023-11-18T04:35:00;2.80;;;1.73;;
16478;SDS011;8350;52.316;10.530;2023-11-18T04:37:32;1.50;;;1.40;;
16478;SDS011;8350;52.316;10.530;2023-11-18T04:40:01;1.42;;;1.33;;
16478;SDS011;8350;52.316;10.530;2023-11-18T04:42:29;1.80;;;1.70;;
16478;SDS011;8350;52.316;10.530;2023-11-18T04:44:56;1.38;;;1.27;;
16478;SDS011;8350;52.316;10.530;2023-11-18T04:47:24;1.10;;;1.00;;
16478;SDS011;8350;52.316;10.530;2023-11-18T04:49:52;1.92;;;1.05;;
16478;SDS011;8350;52.316;10.530;2023-11-18T04:52:19;1.65;;;1.48;;
16478;SDS011;8350;52.316;10.530;2023-11-18T04:54:46;1.35;;;1.25;;
16478;SDS011;8350;52.316;10.530;2023-11-18T04:57:15;0.80;;;0.77;;
16478;SDS011;8350;52.316;10.530;2023-11-18T04:59:42;1.58;;;1.13;;
16478;SDS011;8350;52.316;10.530;2023-11-18T05:02:10;0.98;;;0.98;;
16478;SDS011;8350;52.316;10.530;2023-11-18T05:04:37;1.88;;;1.77;;
16478;SDS011;8350;52.316;10.530;2023-11-18T05:07:06;1.60;;;0.95;;
16478;SDS011;8350;52.316;10.530;2023-11-18T05:09:33;1.45;;;1.27;;
16478;SDS011;8350;52.316;10.530;2023-11-18T05:12:00;2.15;;;1.23;;
16478;SDS011;8350;52.316;10.530;2023-11-18T05:14:29;1.80;;;1.70;;
16478;SDS011;8350;52.316;10.530;2023-11-18T05:16:57;1.38;;;1.00;;
16478;SDS011;8350;52.316;10.530;2023-11-18T05:19:24;1.38;;;1.27;;
16478;SDS011;8350;52.316;10.530;2023-11-18T05:21:51;1.08;;;0.93;;
16478;SDS011;8350;52.316;10.530;2023-11-18T05:24:19;0.85;;;0.82;;
16478;SDS011;8350;52.316;10.530;2023-11-18T05:26:46;1.17;;;1.02;;
16478;SDS011;8350;52.316;10.530;2023-11-18T05:29:13;0.93;;;0.77;;
16478;SDS011;8350;52.316;10.530;2023-11-18T05:31:43;0.80;;;0.80;;
16478;SDS011;8350;52.316;10.530;2023-11-18T05:34:12;1.20;;;1.15;;
16478;SDS011;8350;52.316;10.530;2023-11-18T05:36:39;0.68;;;0.68;;
16478;SDS011;8350;52.316;10.530;2023-11-18T05:39:08;1.15;;;1.10;;
16478;SDS011;8350;52.316;10.530;2023-11-18T05:41:36;1.23;;;1.13;;
16478;SDS011;8350;52.316;10.530;2023-11-18T05:44:05;0.57;;;0.57;;
16478;SDS011;8350;52.316;10.530;2023-11-18T05:46:43;1.05;;;0.95;;
16478;SDS011;8350;52.316;10.530;2023-11-18T05:49:11;0.30;;;0.30;;
16478;SDS011;8350;52.316;10.530;2023-11-18T05:51:39;1.15;;;1.08;;
16478;SDS011;8350;52.316;10.530;2023-11-18T05:54:06;0.68;;;0.50;;
16478;SDS011;8350;52.316;10.530;2023-11-18T05:56:33;0.77;;;0.77;;
16478;SDS011;8350;52.316;10.530;2023-11-18T05:59:01;0.50;;;0.50;;
16478;SDS011;8350;52.316;10.530;2023-11-18T06:01:29;1.17;;;1.15;;
16478;SDS011;8350;52.316;10.530;2023-11-18T06:03:59;0.93;;;0.75;;
16478;SDS011;8350;52.316;10.530;2023-11-18T06:06:27;0.88;;;0.88;;
16478;SDS011;8350;52.316;10.530;2023-11-18T06:08:54;1.52;;;0.65;;
16478;SDS011;8350;52.316;10.530;2023-11-18T06:11:24;1.63;;;1.02;;
16478;SDS011;8350;52.316;10.530;2023-11-18T06:13:51;1.90;;;1.20;;
16478;SDS011;8350;52.316;10.530;2023-11-18T06:16:19;0.63;;;0.63;;
16478;SDS011;8350;52.316;10.530;2023-11-18T06:18:47;1.52;;;0.73;;
16478;SDS011;8350;52.316;10.530;2023-11-18T06:21:17;0.70;;;0.70;;
16478;SDS011;8350;52.316;10.530;2023-11-18T06:23:45;0.57;;;0.57;;
16478;SDS011;8350;52.316;10.530;2023-11-18T06:26:13;1.00;;;0.60;;
16478;SDS011;8350;52.316;10.530;2023-11-18T06:28:41;0.90;;;0.52;;
16478;SDS011;8350;52.316;10.530;2023-11-18T06:31:09;0.40;;;0.40;;
16478;SDS011;8350;52.316;10.530;2023-11-18T06:33:39;0.35;;;0.35;;
16478;SDS011;8350;52.316;10.530;2023-11-18T06:36:08;1.08;;;1.08;;
16478;SDS011;8350;52.316;10.530;2023-11-18T06:38:38;1.48;;;1.38;;
16478;SDS011;8350;52.316;10.530;2023-11-18T06:41:09;1.05;;;1.05;;
16478;SDS011;8350;52.316;10.530;2023-11-18T06:43:38;1.05;;;0.95;;
16478;SDS011;8350;52.316;10.530;2023-11-18T06:46:17;0.90;;;0.90;;
16478;SDS011;8350;52.316;10.530;2023-11-18T06:48:46;0.95;;;0.95;;
16478;SDS011;8350;52.316;10.530;2023-11-18T06:51:14;1.40;;;1.30;;
16478;SDS011;8350;52.316;10.530;2023-11-18T06:53:47;0.73;;;0.73;;
16478;SDS011;8350;52.316;10.530;2023-11-18T06:56:14;1.13;;;1.08;;
16478;SDS011;8350;52.316;10.530;2023-11-18T06:58:41;0.52;;;0.52;;
16478;SDS011;8350;52.316;10.530;2023-11-18T07:01:09;0.80;;;0.80;;
16478;SDS011;8350;52.316;10.530;2023-11-18T07:03:38;0.57;;;0.57;;
16478;SDS011;8350;52.316;10.530;2023-11-18T07:06:08;12.60;;;0.82;;
16478;SDS011;8350;52.316;10.530;2023-11-18T07:08:36;1.38;;;0.73;;
16478;SDS011;8350;52.316;10.530;2023-11-18T07:11:05;1.13;;;1.10;;
16478;SDS011;8350;52.316;10.530;2023-11-18T07:13:33;0.52;;;0.52;;
16478;SDS011;8350;52.316;10.530;2023-11-18T07:19:24;0.80;;;0.80;;
16478;SDS011;8350;52.316;10.530;2023-11-18T07:21:51;1.27;;;0.80;;
16478;SDS011;8350;52.316;10.530;2023-11-18T07:24:19;0.80;;;0.65;;
16478;SDS011;8350;52.316;10.530;2023-11-18T07:26:48;0.85;;;0.85;;
16478;SDS011;8350;52.316;10.530;2023-11-18T07:29:15;0.40;;;0.40;;
16478;SDS011;8350;52.316;10.530;2023-11-18T07:31:43;0.70;;;0.70;;
16478;SDS011;8350;52.316;10.530;2023-11-18T07:34:10;0.50;;;0.50;;
16478;SDS011;8350;52.316;10.530;2023-11-18T07:36:37;0.57;;;0.25;;
16478;SDS011;8350;52.316;10.530;2023-11-18T07:39:04;1.33;;;0.90;;
16478;SDS011;8350;52.316;10.530;2023-11-18T07:41:40;1.10;;;1.05;;
16478;SDS011;8350;52.316;10.530;2023-11-18T07:44:09;0.65;;;0.65;;
16478;SDS011;8350;52.316;10.530;2023-11-18T07:46:41;0.70;;;0.70;;
16478;SDS011;8350;52.316;10.530;2023-11-18T07:49:08;3.80;;;1.23;;
16478;SDS011;8350;52.316;10.530;2023-11-18T07:51:35;0.90;;;0.85;;
16478;SDS011;8350;52.316;10.530;2023-11-18T07:54:03;1.40;;;1.15;;
16478;SDS011;8350;52.316;10.530;2023-11-18T07:56:30;1.08;;;0.60;;
16478;SDS011;8350;52.316;10.530;2023-11-18T07:59:03;1.10;;;1.02;;
16478;SDS011;8350;52.316;10.530;2023-11-18T08:01:34;2.30;;;2.10;;
16478;SDS011;8350;52.316;10.530;2023-11-18T08:04:01;3.65;;;1.75;;
16478;SDS011;8350;52.316;10.530;2023-11-18T08:06:31;3.00;;;1.48;;
16478;SDS011;8350;52.316;10.530;2023-11-18T08:08:58;1.60;;;1.50;;
16478;SDS011;8350;52.316;10.530;2023-11-18T08:11:25;2.40;;;2.20;;
16478;SDS011;8350;52.316;10.530;2023-11-18T08:13:52;1.20;;;0.80;;
16478;SDS011;8350;52.316;10.530;2023-11-18T08:16:19;3.70;;;1.92;;
16478;SDS011;8350;52.316;10.530;2023-11-18T08:18:48;3.53;;;2.72;;
16478;SDS011;8350;52.316;10.530;2023-11-18T08:21:15;2.85;;;2.47;;
16478;SDS011;8350;52.316;10.530;2023-11-18T08:23:42;5.88;;;3.33;;
16478;SDS011;8350;52.316;10.530;2023-11-18T08:26:11;3.63;;;3.25;;
16478;SDS011;8350;52.316;10.530;2023-11-18T08:28:39;4.78;;;3.28;;
16478;SDS011;8350;52.316;10.530;2023-11-18T08:31:06;4.78;;;4.00;;
16478;SDS011;8350;52.316;10.530;2023-11-18T08:33:34;3.08;;;2.15;;
16478;SDS011;8350;52.316;10.530;2023-11-18T08:36:02;3.15;;;2.80;;
16478;SDS011;8350;52.316;10.530;2023-11-18T08:38:30;5.10;;;4.00;;
16478;SDS011;8350;52.316;10.530;2023-11-18T08:40:57;3.38;;;3.08;;
16478;SDS011;8350;52.316;10.530;2023-11-18T08:43:24;5.93;;;3.47;;
16478;SDS011;8350;52.316;10.530;2023-11-18T08:45:53;6.00;;;3.60;;
16478;SDS011;8350;52.316;10.530;2023-11-18T08:48:21;6.28;;;4.18;;
16478;SDS011;8350;52.316;10.530;2023-11-18T08:50:48;5.97;;;4.45;;
16478;SDS011;8350;52.316;10.530;2023-11-18T08:53:18;5.60;;;4.57;;
16478;SDS011;8350;52.316;10.530;2023-11-18T08:55:51;5.70;;;4.03;;
16478;SDS011;8350;52.316;10.530;2023-11-18T08:58:28;6.85;;;5.60;;
16478;SDS011;8350;52.316;10.530;2023-11-18T09:00:59;5.43;;;4.50;;
16478;SDS011;8350;52.316;10.530;2023-11-18T09:03:31;6.50;;;5.18;;
16478;SDS011;8350;52.316;10.530;2023-11-18T09:06:01;9.18;;;5.78;;
16478;SDS011;8350;52.316;10.530;2023-11-18T09:11:29;7.72;;;5.28;;
16478;SDS011;8350;52.316;10.530;2023-11-18T09:13:57;6.68;;;5.28;;
16478;SDS011;8350;52.316;10.530;2023-11-18T09:16:25;6.55;;;5.20;;
16478;SDS011;8350;52.316;10.530;2023-11-18T09:18:55;6.97;;;5.07;;
16478;SDS011;8350;52.316;10.530;2023-11-18T09:21:42;7.85;;;5.78;;
16478;SDS011;8350;52.316;10.530;2023-11-18T09:24:11;9.25;;;6.95;;
16478;SDS011;8350;52.316;10.530;2023-11-18T09:29:34;12.15;;;8.05;;
16478;SDS011;8350;52.316;10.530;2023-11-18T09:32:02;10.20;;;6.90;;
16478;SDS011;8350;52.316;10.530;2023-11-18T09:34:31;9.88;;;6.40;;
16478;SDS011;8350;52.316;10.530;2023-11-18T09:36:58;15.15;;;9.75;;
16478;SDS011;8350;52.316;10.530;2023-11-18T09:39:25;8.82;;;7.28;;
16478;SDS011;8350;52.316;10.530;2023-11-18T09:42:03;9.93;;;8.00;;
16478;SDS011;8350;52.316;10.530;2023-11-18T09:44:35;10.70;;;7.07;;
16478;SDS011;8350;52.316;10.530;2023-11-18T09:47:04;10.52;;;7.35;;
16478;SDS011;8350;52.316;10.530;2023-11-18T09:49:40;14.70;;;7.70;;
16478;SDS011;8350;52.316;10.530;2023-11-18T09:52:15;8.90;;;6.70;;
16478;SDS011;8350;52.316;10.530;2023-11-18T09:54:53;10.63;;;6.78;;
16478;SDS011;8350;52.316;10.530;2023-11-18T09:57:31;12.25;;;8.77;;
16478;SDS011;8350;52.316;10.530;2023-11-18T10:00:00;12.27;;;9.43;;
16478;SDS011;8350;52.316;10.530;2023-11-18T10:02:44;12.38;;;7.97;;
16478;SDS011;8350;52.316;10.530;2023-11-18T10:05:12;15.23;;;7.57;;
16478;SDS011;8350;52.316;10.530;2023-11-18T10:07:39;13.00;;;8.75;;
16478;SDS011;8350;52.316;10.530;2023-11-18T10:10:08;11.05;;;9.30;;
16478;SDS011;8350;52.316;10.530;2023-11-18T10:12:41;11.35;;;8.80;;
